Time;durP1;ratioP1;P1;durP2;ratioP2;P2;SDS_P1;SDS_P2;PMS_P1;PMS_P2;Temp;Humidity;BMP_temperature;BMP_pressure;BME280_temperature;BME280_humidity;BME280_pressure;Samples;Min_cycle;Max_cycle;Signal;HPM_P1;HPM_P2
2021/06/24 00:00:59;;;;;;;7.55;3.38;;;;;;;;;;5107147;27;20031;-79
2021/06/24 00:03:26;;;;;;;5.20;3.35;;;;;;;;;;5120677;27;20042;-78
2021/06/24 00:05:53;;;;;;;8.48;3.42;;;;;;;;;;5109264;28;20028;-78
2021/06/24 00:08:19;;;;;;;8.05;3.58;;;;;;;;;;5113988;27;20036;-78
2021/06/24 00:10:45;;;;;;;10.40;3.53;;;;;;;;;;5111164;28;20046;-78
2021/06/24 00:13:11;;;;;;;8.18;3.92;;;;;;;;;;5122926;27;20051;-78
2021/06/24 00:15:38;;;;;;;8.95;3.38;;;;;;;;;;5111337;28;20030;-79
2021/06/24 00:18:04;;;;;;;5.97;3.65;;;;;;;;;;5114800;27;20115;-79
2021/06/24 00:20:30;;;;;;;7.72;3.85;;;;;;;;;;5123977;27;20473;-79
2021/06/24 00:22:56;;;;;;;7.65;3.70;;;;;;;;;;5123356;27;20038;-78
2021/06/24 00:25:22;;;;;;;7.10;3.40;;;;;;;;;;5114083;27;20063;-78
2021/06/24 00:27:48;;;;;;;7.53;3.80;;;;;;;;;;5114761;27;20030;-78
2021/06/24 00:30:15;;;;;;;7.22;4.00;;;;;;;;;;5112838;27;20390;-78
2021/06/24 00:32:41;;;;;;;4.97;3.40;;;;;;;;;;5110080;28;20042;-78
2021/06/24 00:35:07;;;;;;;12.50;3.60;;;;;;;;;;5112529;27;20485;-78
2021/06/24 00:37:35;;;;;;;5.30;3.17;;;;;;;;;;5106830;27;20036;-77
2021/06/24 00:40:01;;;;;;;7.07;3.47;;;;;;;;;;5110049;27;20024;-78
2021/06/24 00:42:29;;;;;;;8.60;3.70;;;;;;;;;;5104538;28;20034;-79
2021/06/24 00:44:55;;;;;;;5.60;3.58;;;;;;;;;;5104038;27;20027;-78
2021/06/24 00:47:21;;;;;;;8.52;3.90;;;;;;;;;;5112018;27;20036;-78
2021/06/24 00:49:47;;;;;;;5.70;3.65;;;;;;;;;;5107494;27;20020;-78
2021/06/24 00:52:13;;;;;;;6.38;3.78;;;;;;;;;;5120700;27;20556;-78
2021/06/24 00:54:39;;;;;;;6.28;3.85;;;;;;;;;;5105458;27;20020;-78
2021/06/24 00:57:06;;;;;;;9.95;4.25;;;;;;;;;;5119567;27;20097;-77
2021/06/24 00:59:33;;;;;;;6.30;3.95;;;;;;;;;;5104951;27;20069;-78
2021/06/24 01:01:59;;;;;;;8.63;3.60;;;;;;;;;;5092357;28;20039;-78
2021/06/24 01:04:25;;;;;;;9.70;4.00;;;;;;;;;;5107033;28;20034;-78
2021/06/24 01:06:52;;;;;;;5.53;3.85;;;;;;;;;;5112406;28;20027;-78
2021/06/24 01:09:18;;;;;;;8.30;3.92;;;;;;;;;;5112140;28;20027;-79
2021/06/24 01:11:45;;;;;;;7.77;3.77;;;;;;;;;;5103260;27;20067;-78
2021/06/24 01:14:11;;;;;;;13.38;4.38;;;;;;;;;;5119100;27;20031;-78
2021/06/24 01:16:37;;;;;;;9.98;4.70;;;;;;;;;;5111011;27;20032;-78
2021/06/24 01:19:04;;;;;;;8.98;3.88;;;;;;;;;;5113497;27;20035;-79
2021/06/24 01:21:30;;;;;;;11.18;4.60;;;;;;;;;;5117600;27;20046;-79
2021/06/24 01:23:56;;;;;;;9.27;4.10;;;;;;;;;;5122687;27;20023;-78
2021/06/24 01:26:22;;;;;;;16.05;4.30;;;;;;;;;;5112228;27;20028;-77
2021/06/24 01:28:48;;;;;;;11.30;4.20;;;;;;;;;;5102335;27;20058;-79
2021/06/24 01:31:14;;;;;;;6.05;3.90;;;;;;;;;;5122778;27;20031;-78
2021/06/24 01:33:41;;;;;;;7.90;3.83;;;;;;;;;;5118930;27;20031;-79
2021/06/24 01:36:07;;;;;;;10.45;4.60;;;;;;;;;;5125826;27;20031;-79
2021/06/24 01:38:34;;;;;;;7.85;4.13;;;;;;;;;;5116605;27;20035;-78
2021/06/24 01:41:00;;;;;;;4.95;3.70;;;;;;;;;;5110145;27;20027;-78
2021/06/24 01:43:26;;;;;;;6.20;3.75;;;;;;;;;;5116982;27;20393;-77
2021/06/24 01:45:54;;;;;;;8.93;4.18;;;;;;;;;;5121037;27;20021;-78
2021/06/24 01:48:20;;;;;;;;;;;;;;;;;;5115024;27;20027;-77
2021/06/24 01:50:46;;;;;;;11.30;3.95;;;;;;;;;;5124800;27;19911;-79
2021/06/24 01:53:12;;;;;;;12.13;5.28;;;;;;;;;;5099548;28;20393;-78
2021/06/24 01:55:40;;;;;;;7.28;4.22;;;;;;;;;;5111229;28;20065;-78
2021/06/24 01:58:07;;;;;;;9.45;4.45;;;;;;;;;;5112756;27;20035;-78
2021/06/24 02:00:33;;;;;;;5.63;4.30;;;;;;;;;;5124440;27;20027;-79
2021/06/24 02:02:59;;;;;;;6.28;4.20;;;;;;;;;;5115341;27;20035;-79
2021/06/24 02:05:25;;;;;;;7.18;4.53;;;;;;;;;;5124385;27;20031;-79
2021/06/24 02:07:51;;;;;;;9.38;4.30;;;;;;;;;;5113660;27;20496;-79
2021/06/24 02:10:17;;;;;;;9.15;4.40;;;;;;;;;;5118422;27;20030;-78
2021/06/24 02:12:43;;;;;;;7.57;4.53;;;;;;;;;;5121589;27;20023;-79
2021/06/24 02:15:11;;;;;;;11.07;4.38;;;;;;;;;;5110578;28;20367;-78
2021/06/24 02:17:37;;;;;;;8.05;4.28;;;;;;;;;;5111901;27;20048;-78
2021/06/24 02:20:04;;;;;;;6.15;4.03;;;;;;;;;;5109157;28;20497;-79
2021/06/24 02:22:30;;;;;;;;;;;;;;;;;;5122348;27;20057;-79
2021/06/24 02:24:56;;;;;;;8.02;4.25;;;;;;;;;;5123455;27;19943;-79
2021/06/24 02:27:22;;;;;;;10.02;4.22;;;;;;;;;;5110790;28;20382;-79
2021/06/24 02:29:48;;;;;;;11.25;4.45;;;;;;;;;;5085251;28;20024;-77
2021/06/24 02:32:14;;;;;;;8.00;4.07;;;;;;;;;;5081481;28;20028;-77
2021/06/24 02:34:41;;;;;;;7.97;4.32;;;;;;;;;;5091961;28;20046;-78
2021/06/24 02:37:07;;;;;;;;;;;;;;;;;;5110511;28;20051;-77
2021/06/24 02:39:33;;;;;;;11.77;4.45;;;;;;;;;;5086594;28;19908;-79
2021/06/24 02:41:59;;;;;;;8.00;3.83;;;;;;;;;;5106272;28;20113;-78
2021/06/24 02:44:26;;;;;;;7.15;4.28;;;;;;;;;;5100008;28;20034;-78
2021/06/24 02:46:52;;;;;;;7.75;4.70;;;;;;;;;;5114088;28;20040;-78
2021/06/24 02:49:18;;;;;;;12.27;4.47;;;;;;;;;;5105049;28;20024;-78
2021/06/24 02:51:46;;;;;;;6.32;4.18;;;;;;;;;;5115638;28;20024;-78
2021/06/24 02:54:12;;;;;;;10.68;4.40;;;;;;;;;;5116669;28;20036;-78
2021/06/24 02:56:39;;;;;;;8.90;4.60;;;;;;;;;;5116734;28;20089;-78
2021/06/24 02:59:06;;;;;;;7.78;4.50;;;;;;;;;;5110892;28;20054;-77
2021/06/24 03:01:32;;;;;;;10.23;5.00;;;;;;;;;;5108896;28;20066;-78
2021/06/24 03:03:58;;;;;;;11.52;4.65;;;;;;;;;;5100552;28;20068;-79
2021/06/24 03:06:23;;;;;;;7.30;4.72;;;;;;;;;;5118812;28;20019;-78
2021/06/24 03:08:50;;;;;;;10.75;4.68;;;;;;;;;;5124327;28;20024;-79
2021/06/24 03:11:16;;;;;;;6.63;4.78;;;;;;;;;;5118581;28;20382;-78
2021/06/24 03:13:42;;;;;;;10.88;4.60;;;;;;;;;;5098399;28;20473;-79
2021/06/24 03:16:08;;;;;;;8.85;4.80;;;;;;;;;;5105610;28;20070;-78
2021/06/24 03:18:34;;;;;;;11.75;4.53;;;;;;;;;;5105116;28;20056;-79
2021/06/24 03:21:00;;;;;;;10.00;4.55;;;;;;;;;;5102927;28;20031;-78
2021/06/24 03:23:26;;;;;;;7.95;4.75;;;;;;;;;;5112881;28;20034;-77
2021/06/24 03:25:54;;;;;;;10.65;4.75;;;;;;;;;;5115687;27;20059;-77
2021/06/24 03:28:20;;;;;;;;;;;;;;;;;;5112266;27;20047;-77
2021/06/24 03:30:46;;;;;;;7.43;5.10;;;;;;;;;;5090071;28;20030;-77
2021/06/24 03:33:12;;;;;;;6.93;4.55;;;;;;;;;;5105713;27;20038;-78
2021/06/24 03:35:38;;;;;;;10.50;5.32;;;;;;;;;;5106861;27;20504;-79
2021/06/24 03:38:04;;;;;;;6.80;4.97;;;;;;;;;;5124844;27;20066;-79
2021/06/24 03:40:30;;;;;;;10.02;4.88;;;;;;;;;;5125378;27;20023;-78
2021/06/24 03:42:56;;;;;;;8.35;4.70;;;;;;;;;;5129545;27;20031;-78
2021/06/24 03:45:22;;;;;;;10.63;5.03;;;;;;;;;;5112726;27;20027;-78
2021/06/24 03:47:49;;;;;;;17.65;5.05;;;;;;;;;;5116953;27;20019;-78
2021/06/24 03:50:15;;;;;;;11.95;4.97;;;;;;;;;;5114629;27;20381;-77
2021/06/24 03:52:41;;;;;;;11.18;5.43;;;;;;;;;;5112841;27;20040;-78
2021/06/24 03:55:08;;;;;;;10.65;5.68;;;;;;;;;;5118432;27;20069;-79
2021/06/24 03:57:34;;;;;;;7.72;5.18;;;;;;;;;;5113859;27;20461;-78
2021/06/24 04:00:00;;;;;;;10.05;5.32;;;;;;;;;;5112411;28;20108;-78
2021/06/24 04:02:26;;;;;;;7.57;4.78;;;;;;;;;;5105098;28;20080;-77
2021/06/24 04:04:52;;;;;;;11.18;5.40;;;;;;;;;;5114502;27;20036;-77
2021/06/24 04:07:19;;;;;;;6.18;4.75;;;;;;;;;;5121655;27;20031;-78
2021/06/24 04:09:45;;;;;;;10.77;5.07;;;;;;;;;;5114665;27;20467;-78
2021/06/24 04:12:11;;;;;;;14.30;5.30;;;;;;;;;;5123435;27;20027;-77
2021/06/24 04:14:37;;;;;;;8.90;5.18;;;;;;;;;;5112979;27;20032;-78
2021/06/24 04:17:03;;;;;;;9.57;5.25;;;;;;;;;;5113416;27;20043;-79
2021/06/24 04:19:29;;;;;;;8.27;5.05;;;;;;;;;;5114353;27;20026;-78
2021/06/24 04:21:55;;;;;;;7.60;4.88;;;;;;;;;;5110577;27;20034;-78
2021/06/24 04:24:21;;;;;;;8.68;5.00;;;;;;;;;;5131871;27;20034;-79
2021/06/24 04:26:47;;;;;;;9.15;5.28;;;;;;;;;;5120304;27;20038;-77
2021/06/24 04:29:13;;;;;;;9.88;4.88;;;;;;;;;;5111618;28;20367;-78
2021/06/24 04:31:39;;;;;;;10.38;5.10;;;;;;;;;;5098714;28;20106;-78
2021/06/24 04:34:06;;;;;;;11.70;5.13;;;;;;;;;;5112357;28;20530;-78
2021/06/24 04:36:32;;;;;;;9.50;4.80;;;;;;;;;;5112450;28;20019;-78
2021/06/24 04:38:58;;;;;;;9.90;5.43;;;;;;;;;;5108286;28;20031;-78
2021/06/24 04:41:24;;;;;;;13.48;4.93;;;;;;;;;;5102175;28;20032;-78
2021/06/24 04:43:50;;;;;;;9.75;4.85;;;;;;;;;;5092752;28;20051;-78
2021/06/24 04:46:16;;;;;;;9.77;4.93;;;;;;;;;;5112083;28;20035;-77
2021/06/24 04:48:42;;;;;;;12.50;5.20;;;;;;;;;;5111280;28;20470;-78
2021/06/24 04:51:08;;;;;;;11.52;5.35;;;;;;;;;;5111893;28;20039;-78
2021/06/24 04:53:34;;;;;;;7.80;4.90;;;;;;;;;;5111792;28;20055;-78
2021/06/24 04:56:00;;;;;;;9.80;5.20;;;;;;;;;;5111472;28;20054;-78
2021/06/24 04:58:26;;;;;;;7.88;5.50;;;;;;;;;;5098059;28;20794;-77
2021/06/24 05:00:52;;;;;;;10.05;5.38;;;;;;;;;;5093162;28;20035;-78
2021/06/24 05:03:18;;;;;;;9.57;5.30;;;;;;;;;;5090789;28;20046;-77
2021/06/24 05:05:46;;;;;;;14.43;5.20;;;;;;;;;;5091085;28;20097;-77
2021/06/24 05:08:16;;;;;;;15.15;5.35;;;;;;;;;;5091733;28;20021;-76
2021/06/24 05:10:42;;;;;;;9.75;5.00;;;;;;;;;;5110034;28;20024;-78
2021/06/24 05:13:08;;;;;;;7.47;4.32;;;;;;;;;;5110952;28;20092;-78
2021/06/24 05:15:35;;;;;;;12.93;5.80;;;;;;;;;;5112209;28;20024;-77
2021/06/24 05:18:02;;;;;;;9.97;4.90;;;;;;;;;;5109157;28;20047;-77
2021/06/24 05:20:28;;;;;;;11.32;5.35;;;;;;;;;;5110633;28;20052;-77
2021/06/24 05:22:54;;;;;;;9.35;4.80;;;;;;;;;;5111190;27;20034;-77
2021/06/24 05:25:20;;;;;;;7.78;4.93;;;;;;;;;;5122461;27;20020;-77
2021/06/24 05:27:46;;;;;;;12.65;5.20;;;;;;;;;;5109024;28;20179;-78
2021/06/24 05:30:12;;;;;;;10.00;4.63;;;;;;;;;;5097008;28;20445;-78
2021/06/24 05:32:38;;;;;;;7.20;5.05;;;;;;;;;;5108860;28;20031;-77
2021/06/24 05:35:04;;;;;;;9.85;4.78;;;;;;;;;;5110656;28;20043;-78
2021/06/24 05:37:30;;;;;;;9.93;5.15;;;;;;;;;;5111398;28;20046;-77
2021/06/24 05:39:56;;;;;;;11.18;5.18;;;;;;;;;;5110907;28;20019;-78
2021/06/24 05:42:22;;;;;;;8.60;4.95;;;;;;;;;;5092616;28;20036;-78
2021/06/24 05:44:48;;;;;;;7.28;4.55;;;;;;;;;;5090832;28;20494;-76
2021/06/24 05:47:15;;;;;;;11.52;4.80;;;;;;;;;;5075927;28;20032;-77
2021/06/24 05:49:41;;;;;;;13.05;5.43;;;;;;;;;;5090569;28;20424;-77
2021/06/24 05:52:07;;;;;;;8.63;4.53;;;;;;;;;;5108834;28;20027;-77
2021/06/24 05:54:33;;;;;;;8.75;4.95;;;;;;;;;;5110755;28;20066;-77
2021/06/24 05:56:59;;;;;;;8.73;5.10;;;;;;;;;;5111322;27;20059;-77
2021/06/24 05:59:25;;;;;;;10.00;5.28;;;;;;;;;;5105725;27;20023;-79
2021/06/24 06:01:51;;;;;;;7.40;5.22;;;;;;;;;;5111629;27;20483;-77
2021/06/24 06:04:18;;;;;;;12.02;5.35;;;;;;;;;;5108407;27;20024;-77
2021/06/24 06:06:44;;;;;;;7.63;4.87;;;;;;;;;;5110505;28;20031;-77
2021/06/24 06:09:10;;;;;;;9.15;4.85;;;;;;;;;;5116734;27;20118;-77
2021/06/24 06:11:36;;;;;;;14.45;5.20;;;;;;;;;;5109493;27;20484;-77
2021/06/24 06:14:03;;;;;;;7.57;5.00;;;;;;;;;;5113410;27;20024;-76
2021/06/24 06:16:29;;;;;;;9.98;4.97;;;;;;;;;;5118463;27;20035;-77
2021/06/24 06:18:56;;;;;;;13.57;5.35;;;;;;;;;;5106835;28;20035;-76
2021/06/24 06:21:22;;;;;;;11.48;5.18;;;;;;;;;;5096633;28;20156;-76
2021/06/24 06:23:48;;;;;;;13.07;5.47;;;;;;;;;;5113936;27;20035;-76
2021/06/24 06:26:14;;;;;;;7.28;4.68;;;;;;;;;;5109366;27;20024;-78
2021/06/24 06:28:40;;;;;;;9.27;4.57;;;;;;;;;;5105287;28;20040;-78
2021/06/24 06:31:06;;;;;;;7.68;4.47;;;;;;;;;;5105791;27;20058;-78
2021/06/24 06:33:32;;;;;;;12.07;4.40;;;;;;;;;;5097641;28;20367;-77
2021/06/24 06:35:58;;;;;;;8.93;4.38;;;;;;;;;;5104617;28;20019;-78
2021/06/24 06:38:25;;;;;;;9.80;4.00;;;;;;;;;;5099052;28;20081;-78
2021/06/24 06:40:51;;;;;;;10.25;4.45;;;;;;;;;;5113480;28;20030;-77
2021/06/24 06:43:19;;;;;;;8.35;4.55;;;;;;;;;;5119133;28;20389;-76
2021/06/24 06:45:45;;;;;;;8.93;4.88;;;;;;;;;;5107412;28;20049;-79
2021/06/24 06:48:11;;;;;;;8.63;4.28;;;;;;;;;;5094079;28;20084;-77
2021/06/24 06:50:38;;;;;;;10.45;4.55;;;;;;;;;;5121307;28;20397;-75
2021/06/24 06:53:05;;;;;;;9.63;4.40;;;;;;;;;;5123927;28;20447;-75
2021/06/24 06:55:31;;;;;;;10.30;4.10;;;;;;;;;;5113707;27;20043;-77
2021/06/24 06:57:58;;;;;;;8.48;3.97;;;;;;;;;;5116079;27;20035;-76
2021/06/24 07:00:24;;;;;;;6.80;4.18;;;;;;;;;;5134663;27;20030;-76
2021/06/24 07:02:51;;;;;;;8.32;4.53;;;;;;;;;;5125435;27;20042;-76
2021/06/24 07:05:17;;;;;;;8.67;3.97;;;;;;;;;;5122434;27;20027;-77
2021/06/24 07:07:43;;;;;;;8.70;4.43;;;;;;;;;;5122057;27;20043;-76
2021/06/24 07:10:09;;;;;;;14.65;4.72;;;;;;;;;;5121494;27;20036;-78
2021/06/24 07:12:35;;;;;;;11.18;4.68;;;;;;;;;;5113770;27;20028;-78
2021/06/24 07:15:01;;;;;;;11.80;5.10;;;;;;;;;;5122760;27;20042;-77
2021/06/24 07:17:27;;;;;;;9.55;4.63;;;;;;;;;;5128860;27;20474;-78
2021/06/24 07:19:54;;;;;;;8.70;4.20;;;;;;;;;;5103657;27;20064;-78
2021/06/24 07:22:20;;;;;;;8.53;4.27;;;;;;;;;;5115994;27;20669;-77
2021/06/24 07:24:46;;;;;;;16.25;4.65;;;;;;;;;;5133950;27;20267;-77
2021/06/24 07:27:12;;;;;;;7.95;4.00;;;;;;;;;;5125014;27;20102;-77
2021/06/24 07:29:38;;;;;;;10.80;4.80;;;;;;;;;;5128101;27;20040;-78
2021/06/24 07:32:04;;;;;;;11.15;4.53;;;;;;;;;;5113372;27;20527;-77
2021/06/24 07:34:30;;;;;;;6.68;4.63;;;;;;;;;;5114119;27;20031;-76
2021/06/24 07:36:56;;;;;;;8.75;5.03;;;;;;;;;;5114319;27;20539;-77
2021/06/24 07:39:22;;;;;;;8.48;4.70;;;;;;;;;;5120801;27;20130;-77
2021/06/24 07:41:48;;;;;;;10.32;4.28;;;;;;;;;;5119273;27;20019;-77
2021/06/24 07:44:14;;;;;;;8.70;4.53;;;;;;;;;;5132002;27;20030;-77
2021/06/24 07:46:40;;;;;;;10.10;4.95;;;;;;;;;;5095257;28;20027;-77
2021/06/24 07:49:06;;;;;;;11.38;4.28;;;;;;;;;;5112795;27;20406;-76
2021/06/24 07:51:32;;;;;;;10.68;4.80;;;;;;;;;;5123073;27;20039;-77
2021/06/24 07:53:58;;;;;;;9.18;3.95;;;;;;;;;;5133044;27;20051;-78
2021/06/24 07:56:24;;;;;;;8.82;4.22;;;;;;;;;;5124781;27;20073;-77
2021/06/24 07:58:52;;;;;;;9.15;4.50;;;;;;;;;;5132799;27;20040;-78
2021/06/24 08:01:19;;;;;;;11.20;4.53;;;;;;;;;;5123233;27;20051;-76
2021/06/24 08:03:45;;;;;;;10.17;4.30;;;;;;;;;;5117039;27;20031;-77
2021/06/24 08:06:11;;;;;;;8.15;4.47;;;;;;;;;;5132830;27;20031;-78
2021/06/24 08:08:37;;;;;;;10.75;4.93;;;;;;;;;;5116054;27;20114;-78
2021/06/24 08:11:03;;;;;;;10.10;4.57;;;;;;;;;;5124147;27;20536;-78
2021/06/24 08:13:29;;;;;;;10.07;4.53;;;;;;;;;;5131567;27;20128;-77
2021/06/24 08:15:56;;;;;;;9.48;4.47;;;;;;;;;;5125602;27;20031;-76
2021/06/24 08:18:22;;;;;;;10.40;5.13;;;;;;;;;;5132747;27;20031;-76
2021/06/24 08:20:49;;;;;;;11.73;5.00;;;;;;;;;;5127649;27;20024;-77
2021/06/24 08:23:16;;;;;;;11.75;5.00;;;;;;;;;;5125966;27;20114;-78
2021/06/24 08:25:42;;;;;;;;;;;;;;;;;;5130129;27;20027;-77
2021/06/24 08:28:08;;;;;;;11.53;5.00;;;;;;;;;;5113102;27;20362;-78
2021/06/24 08:30:37;;;;;;;18.20;5.28;;;;;;;;;;5121848;27;20059;-76
2021/06/24 08:33:03;;;;;;;17.98;6.45;;;;;;;;;;5125668;27;20038;-76
2021/06/24 08:35:29;;;;;;;10.18;5.22;;;;;;;;;;5132784;27;20549;-77
2021/06/24 08:37:55;;;;;;;11.68;4.70;;;;;;;;;;5113825;27;20067;-78
2021/06/24 08:40:21;;;;;;;14.65;5.10;;;;;;;;;;5129398;27;20019;-77
2021/06/24 08:42:47;;;;;;;11.35;4.68;;;;;;;;;;5110970;27;20665;-76
2021/06/24 08:45:14;;;;;;;12.87;5.90;;;;;;;;;;5127435;27;20020;-78
2021/06/24 08:47:41;;;;;;;15.27;5.85;;;;;;;;;;5115518;27;20019;-77
2021/06/24 08:50:09;;;;;;;13.05;4.50;;;;;;;;;;5119643;27;20035;-77
2021/06/24 08:52:35;;;;;;;12.48;4.72;;;;;;;;;;5122426;27;20625;-78
2021/06/24 08:55:02;;;;;;;11.20;4.63;;;;;;;;;;5111191;27;20067;-78
2021/06/24 08:57:28;;;;;;;6.07;4.00;;;;;;;;;;5125040;27;20039;-74
2021/06/24 08:59:54;;;;;;;8.07;4.22;;;;;;;;;;5122610;27;20036;-75
2021/06/24 09:02:36;;;;;;;8.77;4.20;;;;;;;;;;5105591;27;20035;-80
2021/06/24 09:05:02;;;;;;;8.88;4.38;;;;;;;;;;5105554;27;20027;-80
2021/06/24 09:07:28;;;;;;;9.65;3.90;;;;;;;;;;5117441;27;20049;-80
2021/06/24 09:09:57;;;;;;;9.75;4.28;;;;;;;;;;5118259;27;20032;-81
2021/06/24 09:12:24;;;;;;;9.90;4.57;;;;;;;;;;5109138;27;20027;-81
2021/06/24 09:14:53;;;;;;;9.02;3.65;;;;;;;;;;5096613;28;20047;-83
2021/06/24 09:17:39;;;;;;;10.98;3.88;;;;;;;;;;5117860;27;20056;-83
2021/06/24 09:20:07;;;;;;;12.55;5.28;;;;;;;;;;5102807;27;20070;-85
2021/06/24 09:22:33;;;;;;;12.85;4.50;;;;;;;;;;5118420;27;20064;-84
2021/06/24 09:24:59;;;;;;;7.85;4.15;;;;;;;;;;5107911;28;20032;-83
2021/06/24 09:27:25;;;;;;;8.77;4.63;;;;;;;;;;5109718;27;20028;-81
2021/06/24 09:30:00;;;;;;;13.10;4.20;;;;;;;;;;5127181;27;20457;-83
2021/06/24 09:32:32;;;;;;;10.40;4.53;;;;;;;;;;5128534;27;20031;-84
2021/06/24 09:35:00;;;;;;;13.85;5.00;;;;;;;;;;5112376;28;20082;-84
2021/06/24 09:37:26;;;;;;;8.00;4.30;;;;;;;;;;5112646;27;20035;-82
2021/06/24 09:39:55;;;;;;;10.57;4.60;;;;;;;;;;5111611;27;20461;-81
2021/06/24 09:42:21;;;;;;;10.70;4.20;;;;;;;;;;5114948;27;20130;-81
2021/06/24 09:44:47;;;;;;;13.50;4.30;;;;;;;;;;5093255;28;20024;-80
2021/06/24 09:47:20;;;;;;;8.57;4.70;;;;;;;;;;5106677;27;20036;-81
2021/06/24 09:49:57;;;;;;;8.13;4.53;;;;;;;;;;5106649;28;20102;-82
2021/06/24 09:52:23;;;;;;;11.38;5.28;;;;;;;;;;5098087;28;20501;-77
2021/06/24 09:54:51;;;;;;;8.07;4.22;;;;;;;;;;5107232;28;20028;-78
2021/06/24 09:57:26;;;;;;;15.18;4.43;;;;;;;;;;5117520;27;20048;-77
2021/06/24 09:59:54;;;;;;;7.40;4.00;;;;;;;;;;5123104;27;20137;-79
2021/06/24 10:02:20;;;;;;;8.88;4.35;;;;;;;;;;5113386;27;20359;-77
2021/06/24 10:04:47;;;;;;;11.57;4.20;;;;;;;;;;5114474;27;20354;-80
2021/06/24 10:07:14;;;;;;;11.02;4.40;;;;;;;;;;5115298;27;20044;-80
2021/06/24 10:09:41;;;;;;;13.40;5.10;;;;;;;;;;5110716;27;20026;-79
2021/06/24 10:12:07;;;;;;;;;;;;;;;;;;5122033;27;20489;-79
2021/06/24 10:14:33;;;;;;;13.38;4.80;;;;;;;;;;5112913;28;19929;-81
2021/06/24 10:17:00;;;;;;;15.80;5.38;;;;;;;;;;5123180;27;20036;-81
2021/06/24 10:19:25;;;;;;;;;;;;;;;;;;5123921;27;20026;-79
2021/06/24 10:21:54;;;;;;;9.40;4.82;;;;;;;;;;5121361;27;20387;-80
2021/06/24 10:24:26;;;;;;;15.07;5.10;;;;;;;;;;5117549;27;20023;-79
2021/06/24 10:26:53;;;;;;;17.48;5.07;;;;;;;;;;5121811;27;20023;-79
2021/06/24 10:29:19;;;;;;;;;;;;;;;;;;5130616;27;20019;-80
2021/06/24 10:31:47;;;;;;;12.40;4.85;;;;;;;;;;5118364;27;20431;-78
2021/06/24 10:34:13;;;;;;;12.30;5.78;;;;;;;;;;5116211;28;20453;-80
2021/06/24 10:36:40;;;;;;;11.07;5.07;;;;;;;;;;5119412;28;20015;-78
2021/06/24 10:39:07;;;;;;;11.88;5.03;;;;;;;;;;5125534;28;20080;-79
2021/06/24 10:41:52;;;;;;;12.32;5.15;;;;;;;;;;5126019;28;20015;-79
2021/06/24 10:44:37;;;;;;;10.68;5.13;;;;;;;;;;5113017;28;20052;-78
2021/06/24 10:47:05;;;;;;;11.65;5.50;;;;;;;;;;5102734;28;20624;-79
2021/06/24 10:49:31;;;;;;;10.98;4.95;;;;;;;;;;5094236;28;20028;-75
2021/06/24 10:52:16;;;;;;;11.07;4.13;;;;;;;;;;5105322;28;20092;-77
2021/06/24 10:54:42;;;;;;;10.20;4.60;;;;;;;;;;5101699;28;20055;-78
2021/06/24 10:57:28;;;;;;;12.85;4.85;;;;;;;;;;5120402;28;20150;-79
2021/06/24 10:59:54;;;;;;;9.63;4.43;;;;;;;;;;5126894;28;20031;-79
2021/06/24 11:02:20;;;;;;;13.87;5.37;;;;;;;;;;5096067;28;20077;-77
2021/06/24 11:04:47;;;;;;;10.03;5.13;;;;;;;;;;5116852;28;20398;-78
2021/06/24 11:07:17;;;;;;;9.77;4.75;;;;;;;;;;5098366;28;20023;-79
2021/06/24 11:10:02;;;;;;;11.05;4.65;;;;;;;;;;5108336;28;20450;-79
2021/06/24 11:12:47;;;;;;;10.65;5.05;;;;;;;;;;5115833;28;20015;-80
2021/06/24 11:15:13;;;;;;;12.65;5.80;;;;;;;;;;5113460;28;20161;-80
2021/06/24 11:17:42;;;;;;;11.10;5.97;;;;;;;;;;5123645;28;20116;-79
2021/06/24 11:20:11;;;;;;;10.65;5.35;;;;;;;;;;5120670;28;20074;-78
2021/06/24 11:22:47;;;;;;;14.18;5.47;;;;;;;;;;5122475;28;20031;-79
2021/06/24 11:25:13;;;;;;;14.77;6.85;;;;;;;;;;5118077;28;20061;-80
2021/06/24 11:27:39;;;;;;;16.92;5.65;;;;;;;;;;5111169;28;20469;-79
2021/06/24 11:30:05;;;;;;;13.27;5.60;;;;;;;;;;5119680;28;20059;-80
2021/06/24 11:32:38;;;;;;;10.25;4.93;;;;;;;;;;5097250;28;20038;-79
2021/06/24 11:35:16;;;;;;;13.05;4.78;;;;;;;;;;5118683;28;20080;-79
2021/06/24 11:37:42;;;;;;;9.07;4.18;;;;;;;;;;5091788;28;20053;-78
2021/06/24 11:40:09;;;;;;;9.27;3.17;;;;;;;;;;5111234;28;20367;-78
2021/06/24 11:42:43;;;;;;;4.78;3.25;;;;;;;;;;5124734;27;20031;-81
2021/06/24 11:45:10;;;;;;;7.45;3.55;;;;;;;;;;5124654;27;20508;-78
2021/06/24 11:47:38;;;;;;;8.43;4.03;;;;;;;;;;5128418;27;20024;-80
2021/06/24 12:04:18;;;;;;;12.75;4.03;;;;;;;;;;5116695;27;20035;-79
2021/06/24 12:06:49;;;;;;;9.48;3.55;;;;;;;;;;5112635;27;20464;-79
2021/06/24 12:09:21;;;;;;;7.45;3.90;;;;;;;;;;5132980;27;20106;-79
2021/06/24 12:11:47;;;;;;;15.88;4.93;;;;;;;;;;5126768;27;20043;-80
2021/06/24 12:14:14;;;;;;;7.50;3.47;;;;;;;;;;5113279;27;20027;-80
2021/06/24 12:16:40;;;;;;;8.55;3.42;;;;;;;;;;5125264;27;20026;-79
2021/06/24 12:19:06;;;;;;;10.43;3.13;;;;;;;;;;5116894;27;20039;-79
2021/06/24 12:21:32;;;;;;;5.73;2.80;;;;;;;;;;5128652;27;20107;-80
2021/06/24 12:23:58;;;;;;;7.13;3.20;;;;;;;;;;5112971;27;20276;-78
2021/06/24 12:26:24;;;;;;;8.00;3.03;;;;;;;;;;5127692;27;20269;-79
2021/06/24 12:28:50;;;;;;;10.25;3.05;;;;;;;;;;5100330;27;20283;-80
2021/06/24 12:31:20;;;;;;;10.07;3.67;;;;;;;;;;5113286;27;20019;-78
2021/06/24 12:33:48;;;;;;;5.95;3.05;;;;;;;;;;5117313;27;20489;-79
2021/06/24 12:36:15;;;;;;;8.95;3.28;;;;;;;;;;5131841;27;20031;-79
2021/06/24 12:38:44;;;;;;;3.38;2.53;;;;;;;;;;5128530;27;20032;-78
2021/06/24 12:41:13;;;;;;;5.07;3.08;;;;;;;;;;5128899;27;20035;-80
2021/06/24 12:43:39;;;;;;;5.85;2.55;;;;;;;;;;5120288;27;20115;-79
2021/06/24 12:46:06;;;;;;;;;;;;;;;;;;5105121;28;20024;-79
2021/06/24 12:48:41;;;;;;;6.00;3.00;;;;;;;;;;5088369;28;19908;-79
2021/06/24 12:51:08;;;;;;;10.75;3.10;;;;;;;;;;5119873;27;20036;-78
2021/06/24 12:53:40;;;;;;;14.45;3.10;;;;;;;;;;5107843;27;20142;-80
2021/06/24 12:56:19;;;;;;;8.07;2.97;;;;;;;;;;5109846;27;20019;-77
2021/06/24 12:58:45;;;;;;;9.13;2.90;;;;;;;;;;5123155;27;20092;-79
2021/06/24 13:01:12;;;;;;;6.28;2.75;;;;;;;;;;5112270;28;20027;-77
2021/06/24 13:03:39;;;;;;;6.20;2.65;;;;;;;;;;5111161;27;20435;-78
2021/06/24 13:06:06;;;;;;;4.15;2.35;;;;;;;;;;5125812;27;20649;-79
2021/06/24 13:08:33;;;;;;;5.32;2.60;;;;;;;;;;5121382;27;20031;-78
2021/06/24 13:10:59;;;;;;;5.35;2.42;;;;;;;;;;5118006;27;20054;-79
2021/06/24 13:13:28;;;;;;;6.18;2.50;;;;;;;;;;5119001;27;20445;-78
2021/06/24 13:15:54;;;;;;;8.30;2.95;;;;;;;;;;5105743;27;20379;-78
2021/06/24 13:18:20;;;;;;;5.45;2.40;;;;;;;;;;5120357;27;20851;-77
2021/06/24 13:20:46;;;;;;;;;;;;;;;;;;5116845;27;20058;-77
2021/06/24 13:23:12;;;;;;;6.65;2.60;;;;;;;;;;5126663;27;19914;-78
2021/06/24 13:25:41;;;;;;;9.70;2.97;;;;;;;;;;5121531;27;20513;-79
2021/06/24 13:28:08;;;;;;;4.22;2.30;;;;;;;;;;5105060;27;20031;-80
2021/06/24 13:30:34;;;;;;;;;;;;;;;;;;5128193;27;20032;-80
2021/06/24 13:33:00;;;;;;;;;;;;;;;;;;5120121;27;19908;-78
2021/06/24 13:35:27;;;;;;;6.88;2.50;;;;;;;;;;5096132;28;19908;-80
2021/06/24 13:37:56;;;;;;;8.43;2.42;;;;;;;;;;5112863;27;20036;-79
2021/06/24 13:40:29;;;;;;;6.53;2.70;;;;;;;;;;5121966;27;20680;-81
2021/06/24 13:42:56;;;;;;;9.02;2.53;;;;;;;;;;5111256;27;20023;-82
2021/06/24 13:45:22;;;;;;;7.13;2.58;;;;;;;;;;5111493;28;20489;-81
2021/06/24 13:47:48;;;;;;;10.07;2.57;;;;;;;;;;5114674;27;20024;-82
2021/06/24 13:50:15;;;;;;;8.70;3.20;;;;;;;;;;5123171;27;20377;-82
2021/06/24 13:52:41;;;;;;;5.07;2.55;;;;;;;;;;5121399;27;20040;-80
2021/06/24 13:55:08;;;;;;;7.90;2.53;;;;;;;;;;5109305;28;20038;-82
2021/06/24 13:57:34;;;;;;;8.88;3.20;;;;;;;;;;5127664;27;20035;-83
2021/06/24 14:00:00;;;;;;;7.13;3.10;;;;;;;;;;5096299;27;20030;-81
2021/06/24 14:02:26;;;;;;;9.47;3.07;;;;;;;;;;5115052;27;20032;-81
2021/06/24 14:04:52;;;;;;;7.57;3.07;;;;;;;;;;5111058;28;20016;-82
2021/06/24 14:07:18;;;;;;;6.83;2.60;;;;;;;;;;5124685;27;20035;-84
2021/06/24 14:09:44;;;;;;;9.48;2.90;;;;;;;;;;5100087;27;20265;-79
2021/06/24 14:12:11;;;;;;;5.57;2.60;;;;;;;;;;5084721;28;20024;-80
2021/06/24 14:14:37;;;;;;;8.05;3.50;;;;;;;;;;5109107;27;20066;-81
2021/06/24 14:17:03;;;;;;;8.60;2.70;;;;;;;;;;5121019;27;20075;-81
2021/06/24 14:19:29;;;;;;;10.43;3.23;;;;;;;;;;5116494;27;20023;-82
2021/06/24 14:21:56;;;;;;;9.45;3.30;;;;;;;;;;5109124;28;20031;-81
2021/06/24 14:24:22;;;;;;;11.70;2.97;;;;;;;;;;5116524;27;20466;-80
2021/06/24 14:26:48;;;;;;;7.28;3.10;;;;;;;;;;5092993;28;20039;-88
2021/06/24 14:29:14;;;;;;;7.15;2.92;;;;;;;;;;5112618;28;20031;-87
2021/06/24 14:31:40;;;;;;;10.88;4.95;;;;;;;;;;5098347;28;20787;-85
2021/06/24 14:34:06;;;;;;;8.52;2.88;;;;;;;;;;5100140;27;20122;-86
2021/06/24 14:36:32;;;;;;;5.23;2.67;;;;;;;;;;5120359;27;20023;-88
2021/06/24 14:38:58;;;;;;;9.37;3.50;;;;;;;;;;5135398;27;20040;-86
2021/06/24 14:41:27;;;;;;;9.15;3.13;;;;;;;;;;5091458;28;20052;-88
2021/06/24 14:43:54;;;;;;;10.82;3.08;;;;;;;;;;5110447;28;20261;-85
2021/06/24 14:46:20;;;;;;;9.05;3.10;;;;;;;;;;5107578;28;20040;-83
2021/06/24 14:48:46;;;;;;;14.80;3.65;;;;;;;;;;5104735;28;20036;-83
2021/06/24 14:51:13;;;;;;;14.07;3.50;;;;;;;;;;5113530;28;20042;-83
2021/06/24 14:53:40;;;;;;;9.93;3.15;;;;;;;;;;5098348;28;20039;-83